• Join FlightAware (Why Join?)
  • Login
  • US Flag 
08:58AM EDT


 

Airport Tracker/Info


-or-


 

Live Flight TrackerFlight Track Log ✈ UAL1038 ✈ 12-Jul-2013 ✈ KLAX - KSFO

Flight Track Log - Related Links

Times and Time Zones

All times are in EDT time to prevent confusion due to time zone crossing. See the UAL1038 flight status page for this flight to view local times or setup timezone preferences in your user account.

Time Position Orientation Groundspeed Altitude Reporting Facility
EDT Latitude Longitude Course Direction KTS MPH feet Rate Location/Type
04:16PM 33.9456 -118.4503 305° West 167 192 1,300  Level Los Angeles Center
04:17PM 33.9394 -118.5292 265° West 224 258 4,000 2,700 Climbing Los Angeles Center
04:18PM 33.9308 -118.6208 264° West 275 316 7,000 3,180 Climbing Los Angeles Center
04:19PM 34.0340 -118.7777 285° West  Level FlightAware Approximate
04:19PM 33.9206 -118.7217 263° West 282 325 10,600  Level Los Angeles Center
04:20PM 34.0708 -118.9020 296° West  Level FlightAware Approximate
04:20PM 33.9108 -118.8303 264° West 326 375 12,800  Level Los Angeles Center
04:21PM 34.1000 -119.0282 270° West  Level FlightAware Approximate
04:21PM 33.9658 -118.9272 304° West 354 407 15,800  Level Los Angeles Center
04:22PM 34.1549 -119.1376 305° West  Level FlightAware Approximate
04:23PM 34.0292 -119.0264 308° West 377 434 18,300  Level Los Angeles Center
04:24PM 34.0956 -119.1314 307° West 395 455 20,700 2,340 Climbing Los Angeles Center
04:25PM 34.1647 -119.2400 308° West 409 471 23,200 2,220 Climbing Los Angeles Center
04:26PM 34.2497 -119.3714 308° West 414 476 25,400 1,920 Climbing Los Angeles Center
04:27PM 34.3239 -119.4875 308° West 433 498 27,200 1,620 Climbing Los Angeles Center
04:28PM 34.4006 -119.6050 308° West 444 511 28,800 1,680 Climbing Los Angeles Center
04:29PM 34.4775 -119.7258 308° West 453 521 30,700 1,620 Climbing Los Angeles Center
04:30PM 34.5639 -119.8347 314° West 449 517 32,200 1,500 Climbing Los Angeles Center
04:31PM 34.6639 -119.9406 319° Northwest 458 527 33,800 780 Climbing Los Angeles Center
04:32PM 34.7575 -120.0436 318° Northwest 455 524 33,900  Climbing Los Angeles Center
04:33PM 34.8694 -120.1636 319° Northwest 456 525 33,900  Level Los Angeles Center
04:34PM 34.9622 -120.2661 318° Northwest 456 525 34,000  Climbing Los Angeles Center
04:35PM 35.0544 -120.3683 318° Northwest 454 522 34,000  Level Los Angeles Center
04:36PM 35.1458 -120.4706 318° Northwest 451 519 34,000  Level Los Angeles Center
04:37PM 35.2375 -120.5731 318° Northwest 452 520 34,000  Level Los Angeles Center
04:38PM 35.3478 -120.6975 317° Northwest 453 521 34,000  Level Los Angeles Center
04:39PM 35.4483 -120.7892 323° Northwest 453 521 34,000  Level Los Angeles Center
04:40PM 35.5489 -120.8783 324° Northwest 450 518 34,000  Level Los Angeles Center
04:41PM 35.6447 -120.9631 324° Northwest 451 519 34,000  Level Los Angeles Center
04:42PM 35.7644 -121.0697 324° Northwest 445 512 34,000  Level Los Angeles Center
04:44PM 35.9036 -121.1969 323° Northwest 446 513 34,000 -60 Level Oakland Center
04:45PM 36.0044 -121.2867 324° Northwest 451 519 33,900 -660 Descending Oakland Center
04:46PM 36.1033 -121.3769 324° Northwest 441 507 32,700 -1,980 Descending Oakland Center
04:47PM 36.1997 -121.4706 322° Northwest 440 506 29,900 -2,640 Descending Oakland Center
04:48PM 36.3011 -121.5583 325° Northwest 442 509 27,300 -2,580 Descending Oakland Center
04:49PM 36.4156 -121.6633 324° Northwest 424 488 24,700 -2,340 Descending Oakland Center
04:50PM 36.5069 -121.7514 322° Northwest 414 476 22,600 -1,920 Descending Oakland Center
04:51PM 36.5894 -121.8244 325° Northwest 402 463 20,800 -1,620 Descending Oakland Center
04:51PM 36.6500 -121.8833 322° Northwest 384 442 20,000 -2,160 Descending Northern Cal TRACON
04:52PM 36.7333 -121.9500 327° Northwest 373 429 17,400 -2,340 Descending Northern Cal TRACON
04:53PM 36.8333 -121.9833 345° North 362 417 15,400 -2,040 Descending Northern Cal TRACON
04:54PM 36.9333 -122.0167 345° North 345 397 13,400 -1,740 Descending Northern Cal TRACON
04:55PM 36.9894 -122.0317 348° North 345 397 12,200 -1,620 Descending Oakland Center
04:56PM 37.0989 -122.0578 349° North 335 386 10,400 -1,380 Descending Oakland Center
04:57PM 37.1817 -122.0789 349° North 306 352 9,400 -1,200 Descending Oakland Center
04:58PM 37.2642 -122.0986 349° North 301 346 8,000 -1,020 Descending Oakland Center
05:00PM 37.4167 -122.0167 23° Northeast 233 268 6,400 -660 Descending Northern Cal TRACON
05:01PM 37.4667 -122.0167 360° North 212 244 6,000 -480 Descending Northern Cal TRACON
05:02PM 37.5000 -122.0833 302° West 204 235 5,500 -720 Descending Northern Cal TRACON
05:03PM 37.5167 -122.1333 293° West 198 228 4,600 -900 Descending Northern Cal TRACON
05:04PM 37.5500 -122.2000 302° West 198 228 3,700 -900 Descending Northern Cal TRACON